sensor_id;sensor_type;location;lat;lon;timestamp;P1;durP1;ratioP1;P2;durP2;ratioP2
42754;SDS011;28407;51.830;5.684;2023-01-01T00:01:33;9.82;;;5.18;;
42754;SDS011;28407;51.830;5.684;2023-01-01T00:03:39;8.43;;;5.28;;
42754;SDS011;28407;51.830;5.684;2023-01-01T00:05:39;7.80;;;4.63;;
42754;SDS011;28407;51.830;5.684;2023-01-01T00:07:40;8.15;;;4.20;;
42754;SDS011;28407;51.830;5.684;2023-01-01T00:09:41;6.75;;;4.72;;
42754;SDS011;28407;51.830;5.684;2023-01-01T00:12:00;5.82;;;3.92;;
42754;SDS011;28407;51.830;5.684;2023-01-01T00:14:01;6.38;;;4.65;;
42754;SDS011;28407;51.830;5.684;2023-01-01T00:16:08;7.13;;;4.22;;
42754;SDS011;28407;51.830;5.684;2023-01-01T00:18:13;5.70;;;3.30;;
42754;SDS011;28407;51.830;5.684;2023-01-01T00:20:13;11.85;;;4.35;;
42754;SDS011;28407;51.830;5.684;2023-01-01T00:22:14;8.57;;;4.40;;
42754;SDS011;28407;51.830;5.684;2023-01-01T00:24:15;6.20;;;3.30;;
42754;SDS011;28407;51.830;5.684;2023-01-01T00:26:16;5.85;;;3.40;;
42754;SDS011;28407;51.830;5.684;2023-01-01T00:28:17;6.15;;;3.67;;
42754;SDS011;28407;51.830;5.684;2023-01-01T00:30:18;5.95;;;3.33;;
42754;SDS011;28407;51.830;5.684;2023-01-01T00:32:19;7.20;;;4.35;;
42754;SDS011;28407;51.830;5.684;2023-01-01T00:34:19;4.90;;;2.67;;
42754;SDS011;28407;51.830;5.684;2023-01-01T00:36:20;13.90;;;3.13;;
42754;SDS011;28407;51.830;5.684;2023-01-01T00:38:22;5.72;;;3.22;;
42754;SDS011;28407;51.830;5.684;2023-01-01T00:40:22;6.07;;;2.45;;
42754;SDS011;28407;51.830;5.684;2023-01-01T00:42:23;7.95;;;3.10;;
42754;SDS011;28407;51.830;5.684;2023-01-01T00:44:23;6.57;;;2.58;;
42754;SDS011;28407;51.830;5.684;2023-01-01T00:46:24;6.10;;;2.63;;
42754;SDS011;28407;51.830;5.684;2023-01-01T00:48:25;4.03;;;2.15;;
42754;SDS011;28407;51.830;5.684;2023-01-01T00:50:25;4.68;;;2.38;;
42754;SDS011;28407;51.830;5.684;2023-01-01T00:52:26;4.05;;;2.22;;
42754;SDS011;28407;51.830;5.684;2023-01-01T00:54:26;6.78;;;2.25;;
42754;SDS011;28407;51.830;5.684;2023-01-01T00:56:28;4.05;;;2.03;;
42754;SDS011;28407;51.830;5.684;2023-01-01T00:58:28;5.68;;;2.53;;
42754;SDS011;28407;51.830;5.684;2023-01-01T01:00:29;4.85;;;2.92;;
42754;SDS011;28407;51.830;5.684;2023-01-01T01:02:29;3.10;;;2.15;;
42754;SDS011;28407;51.830;5.684;2023-01-01T01:04:30;3.83;;;2.45;;
42754;SDS011;28407;51.830;5.684;2023-01-01T01:06:31;7.10;;;2.75;;
42754;SDS011;28407;51.830;5.684;2023-01-01T01:08:32;6.28;;;2.08;;
42754;SDS011;28407;51.830;5.684;2023-01-01T01:10:34;4.63;;;2.20;;
42754;SDS011;28407;51.830;5.684;2023-01-01T01:12:34;3.55;;;1.85;;
42754;SDS011;28407;51.830;5.684;2023-01-01T01:14:35;4.10;;;2.35;;
42754;SDS011;28407;51.830;5.684;2023-01-01T01:16:35;7.63;;;2.38;;
42754;SDS011;28407;51.830;5.684;2023-01-01T01:18:36;5.18;;;2.15;;
42754;SDS011;28407;51.830;5.684;2023-01-01T01:20:37;5.78;;;2.22;;
42754;SDS011;28407;51.830;5.684;2023-01-01T01:22:38;4.35;;;1.75;;
42754;SDS011;28407;51.830;5.684;2023-01-01T01:24:39;2.97;;;1.80;;
42754;SDS011;28407;51.830;5.684;2023-01-01T01:26:40;5.07;;;1.75;;
42754;SDS011;28407;51.830;5.684;2023-01-01T01:28:41;3.60;;;1.67;;
42754;SDS011;28407;51.830;5.684;2023-01-01T01:30:43;4.40;;;2.58;;
42754;SDS011;28407;51.830;5.684;2023-01-01T01:32:43;3.88;;;1.60;;
42754;SDS011;28407;51.830;5.684;2023-01-01T01:34:44;4.90;;;1.95;;
42754;SDS011;28407;51.830;5.684;2023-01-01T01:36:45;3.38;;;1.60;;
42754;SDS011;28407;51.830;5.684;2023-01-01T01:38:46;6.13;;;1.87;;
42754;SDS011;28407;51.830;5.684;2023-01-01T01:40:47;5.13;;;2.17;;
42754;SDS011;28407;51.830;5.684;2023-01-01T01:42:48;2.10;;;1.65;;
42754;SDS011;28407;51.830;5.684;2023-01-01T01:44:51;2.60;;;1.50;;
42754;SDS011;28407;51.830;5.684;2023-01-01T01:46:59;3.33;;;1.70;;
42754;SDS011;28407;51.830;5.684;2023-01-01T01:49:03;4.18;;;1.77;;
42754;SDS011;28407;51.830;5.684;2023-01-01T01:51:08;3.92;;;1.65;;
42754;SDS011;28407;51.830;5.684;2023-01-01T01:53:15;2.67;;;1.80;;
42754;SDS011;28407;51.830;5.684;2023-01-01T01:55:19;3.97;;;1.65;;
42754;SDS011;28407;51.830;5.684;2023-01-01T01:57:19;3.25;;;1.90;;
42754;SDS011;28407;51.830;5.684;2023-01-01T01:59:21;7.20;;;2.75;;
42754;SDS011;28407;51.830;5.684;2023-01-01T02:01:26;3.05;;;1.98;;
42754;SDS011;28407;51.830;5.684;2023-01-01T02:03:36;6.63;;;2.05;;
42754;SDS011;28407;51.830;5.684;2023-01-01T02:05:42;3.97;;;2.00;;
42754;SDS011;28407;51.830;5.684;2023-01-01T02:07:43;2.47;;;1.45;;
42754;SDS011;28407;51.830;5.684;2023-01-01T02:09:44;3.03;;;1.42;;
42754;SDS011;28407;51.830;5.684;2023-01-01T02:11:45;4.43;;;1.95;;
42754;SDS011;28407;51.830;5.684;2023-01-01T02:13:46;3.60;;;1.77;;
42754;SDS011;28407;51.830;5.684;2023-01-01T02:15:48;3.03;;;1.90;;
42754;SDS011;28407;51.830;5.684;2023-01-01T02:31:05;5.88;;;2.63;;
42754;SDS011;28407;51.830;5.684;2023-01-01T02:33:13;3.60;;;1.80;;
42754;SDS011;28407;51.830;5.684;2023-01-01T02:35:40;2.78;;;1.77;;
42754;SDS011;28407;51.830;5.684;2023-01-01T02:37:43;3.25;;;1.50;;
42754;SDS011;28407;51.830;5.684;2023-01-01T02:39:45;3.83;;;2.20;;
42754;SDS011;28407;51.830;5.684;2023-01-01T02:41:51;3.13;;;1.90;;
42754;SDS011;28407;51.830;5.684;2023-01-01T02:43:53;4.18;;;1.80;;
42754;SDS011;28407;51.830;5.684;2023-01-01T02:45:54;2.55;;;2.13;;
42754;SDS011;28407;51.830;5.684;2023-01-01T02:47:55;1.98;;;1.52;;
42754;SDS011;28407;51.830;5.684;2023-01-01T02:50:12;2.75;;;1.50;;
42754;SDS011;28407;51.830;5.684;2023-01-01T02:54:58;7.07;;;2.78;;
42754;SDS011;28407;51.830;5.684;2023-01-01T02:57:15;2.20;;;1.48;;
42754;SDS011;28407;51.830;5.684;2023-01-01T03:02:30;4.70;;;1.73;;
42754;SDS011;28407;51.830;5.684;2023-01-01T03:04:30;2.33;;;1.55;;
42754;SDS011;28407;51.830;5.684;2023-01-01T03:06:49;2.97;;;1.40;;
42754;SDS011;28407;51.830;5.684;2023-01-01T03:09:08;2.15;;;1.52;;
42754;SDS011;28407;51.830;5.684;2023-01-01T03:11:14;3.08;;;1.60;;
42754;SDS011;28407;51.830;5.684;2023-01-01T03:15:42;2.65;;;1.65;;
42754;SDS011;28407;51.830;5.684;2023-01-01T03:17:54;2.92;;;1.70;;
42754;SDS011;28407;51.830;5.684;2023-01-01T03:20:16;3.58;;;1.80;;
42754;SDS011;28407;51.830;5.684;2023-01-01T03:22:20;3.03;;;1.40;;
42754;SDS011;28407;51.830;5.684;2023-01-01T03:24:30;6.65;;;1.92;;
42754;SDS011;28407;51.830;5.684;2023-01-01T03:26:40;3.75;;;1.58;;
42754;SDS011;28407;51.830;5.684;2023-01-01T03:28:45;1.98;;;1.60;;
42754;SDS011;28407;51.830;5.684;2023-01-01T03:30:52;3.65;;;1.40;;
42754;SDS011;28407;51.830;5.684;2023-01-01T03:34:59;2.47;;;1.60;;
42754;SDS011;28407;51.830;5.684;2023-01-01T03:37:02;3.60;;;1.50;;
42754;SDS011;28407;51.830;5.684;2023-01-01T03:39:07;2.10;;;1.40;;
42754;SDS011;28407;51.830;5.684;2023-01-01T03:46:14;2.40;;;1.35;;
42754;SDS011;28407;51.830;5.684;2023-01-01T03:48:18;1.88;;;1.63;;
42754;SDS011;28407;51.830;5.684;2023-01-01T03:50:20;2.40;;;1.23;;
42754;SDS011;28407;51.830;5.684;2023-01-01T03:53:11;3.33;;;1.73;;
42754;SDS011;28407;51.830;5.684;2023-01-01T03:55:08;2.20;;;1.38;;
42754;SDS011;28407;51.830;5.684;2023-01-01T03:57:31;2.95;;;1.90;;
42754;SDS011;28407;51.830;5.684;2023-01-01T04:00:11;2.75;;;1.90;;
42754;SDS011;28407;51.830;5.684;2023-01-01T04:02:18;2.60;;;1.60;;
42754;SDS011;28407;51.830;5.684;2023-01-01T04:04:21;1.98;;;1.52;;
42754;SDS011;28407;51.830;5.684;2023-01-01T04:08:24;2.88;;;2.00;;
42754;SDS011;28407;51.830;5.684;2023-01-01T04:10:25;2.38;;;1.42;;
42754;SDS011;28407;51.830;5.684;2023-01-01T04:12:29;2.10;;;1.80;;
42754;SDS011;28407;51.830;5.684;2023-01-01T04:14:34;3.85;;;1.63;;
42754;SDS011;28407;51.830;5.684;2023-01-01T04:16:41;3.38;;;1.42;;
42754;SDS011;28407;51.830;5.684;2023-01-01T04:18:42;3.10;;;1.63;;
42754;SDS011;28407;51.830;5.684;2023-01-01T04:20:42;3.10;;;2.10;;
42754;SDS011;28407;51.830;5.684;2023-01-01T04:22:43;7.32;;;1.70;;
42754;SDS011;28407;51.830;5.684;2023-01-01T04:24:44;3.17;;;1.50;;
42754;SDS011;28407;51.830;5.684;2023-01-01T04:26:44;3.03;;;1.60;;
42754;SDS011;28407;51.830;5.684;2023-01-01T04:28:45;2.60;;;1.40;;
42754;SDS011;28407;51.830;5.684;2023-01-01T04:30:46;6.65;;;1.90;;
42754;SDS011;28407;51.830;5.684;2023-01-01T04:32:46;3.42;;;1.42;;
42754;SDS011;28407;51.830;5.684;2023-01-01T04:34:47;3.78;;;2.38;;
42754;SDS011;28407;51.830;5.684;2023-01-01T04:36:48;2.58;;;1.65;;
42754;SDS011;28407;51.830;5.684;2023-01-01T04:38:48;3.88;;;1.48;;
42754;SDS011;28407;51.830;5.684;2023-01-01T04:40:58;2.75;;;1.52;;
42754;SDS011;28407;51.830;5.684;2023-01-01T04:42:59;2.67;;;1.50;;
42754;SDS011;28407;51.830;5.684;2023-01-01T04:45:00;3.42;;;1.60;;
42754;SDS011;28407;51.830;5.684;2023-01-01T04:47:01;3.88;;;2.33;;
42754;SDS011;28407;51.830;5.684;2023-01-01T04:49:02;3.08;;;1.60;;
42754;SDS011;28407;51.830;5.684;2023-01-01T04:51:03;2.60;;;1.38;;
42754;SDS011;28407;51.830;5.684;2023-01-01T04:53:04;2.00;;;1.42;;
42754;SDS011;28407;51.830;5.684;2023-01-01T04:55:05;3.60;;;1.50;;
42754;SDS011;28407;51.830;5.684;2023-01-01T04:57:06;1.67;;;1.30;;
42754;SDS011;28407;51.830;5.684;2023-01-01T04:59:07;2.80;;;2.03;;
42754;SDS011;28407;51.830;5.684;2023-01-01T05:01:08;2.15;;;1.20;;
42754;SDS011;28407;51.830;5.684;2023-01-01T05:03:18;2.50;;;1.20;;
42754;SDS011;28407;51.830;5.684;2023-01-01T05:05:18;3.45;;;1.83;;
42754;SDS011;28407;51.830;5.684;2023-01-01T05:07:19;5.18;;;1.40;;
42754;SDS011;28407;51.830;5.684;2023-01-01T05:09:20;3.35;;;1.30;;
42754;SDS011;28407;51.830;5.684;2023-01-01T05:11:22;2.50;;;1.40;;
42754;SDS011;28407;51.830;5.684;2023-01-01T05:13:24;3.15;;;1.55;;
42754;SDS011;28407;51.830;5.684;2023-01-01T05:15:25;7.05;;;1.67;;
42754;SDS011;28407;51.830;5.684;2023-01-01T05:17:25;4.88;;;1.88;;
42754;SDS011;28407;51.830;5.684;2023-01-01T05:19:26;2.80;;;1.60;;
42754;SDS011;28407;51.830;5.684;2023-01-01T05:21:27;3.88;;;1.65;;
42754;SDS011;28407;51.830;5.684;2023-01-01T05:23:33;3.75;;;1.42;;
42754;SDS011;28407;51.830;5.684;2023-01-01T05:25:34;2.50;;;1.50;;
42754;SDS011;28407;51.830;5.684;2023-01-01T05:27:35;1.85;;;1.40;;
42754;SDS011;28407;51.830;5.684;2023-01-01T05:29:35;4.85;;;1.20;;
42754;SDS011;28407;51.830;5.684;2023-01-01T05:31:36;5.47;;;1.85;;
42754;SDS011;28407;51.830;5.684;2023-01-01T05:33:37;7.05;;;2.30;;
42754;SDS011;28407;51.830;5.684;2023-01-01T05:35:38;5.72;;;2.25;;
42754;SDS011;28407;51.830;5.684;2023-01-01T05:37:38;2.92;;;1.45;;
42754;SDS011;28407;51.830;5.684;2023-01-01T05:39:39;2.45;;;1.33;;
42754;SDS011;28407;51.830;5.684;2023-01-01T05:41:40;4.00;;;1.50;;
42754;SDS011;28407;51.830;5.684;2023-01-01T05:43:41;3.88;;;1.90;;
42754;SDS011;28407;51.830;5.684;2023-01-01T05:45:42;1.40;;;1.30;;
42754;SDS011;28407;51.830;5.684;2023-01-01T05:47:43;5.28;;;1.50;;
42754;SDS011;28407;51.830;5.684;2023-01-01T05:49:44;2.28;;;1.60;;
42754;SDS011;28407;51.830;5.684;2023-01-01T05:51:44;2.50;;;1.50;;
42754;SDS011;28407;51.830;5.684;2023-01-01T05:53:45;2.38;;;1.35;;
42754;SDS011;28407;51.830;5.684;2023-01-01T05:55:51;5.50;;;1.50;;
42754;SDS011;28407;51.830;5.684;2023-01-01T05:57:53;3.92;;;1.52;;
42754;SDS011;28407;51.830;5.684;2023-01-01T05:59:53;6.45;;;1.60;;
42754;SDS011;28407;51.830;5.684;2023-01-01T06:01:54;4.05;;;1.38;;
42754;SDS011;28407;51.830;5.684;2023-01-01T06:03:55;2.97;;;1.40;;
42754;SDS011;28407;51.830;5.684;2023-01-01T06:06:01;2.25;;;1.70;;
42754;SDS011;28407;51.830;5.684;2023-01-01T06:08:06;1.50;;;1.40;;
42754;SDS011;28407;51.830;5.684;2023-01-01T06:10:07;1.42;;;1.30;;
42754;SDS011;28407;51.830;5.684;2023-01-01T06:12:08;3.13;;;1.77;;
42754;SDS011;28407;51.830;5.684;2023-01-01T06:14:09;2.42;;;1.40;;
42754;SDS011;28407;51.830;5.684;2023-01-01T06:16:10;2.33;;;1.38;;
42754;SDS011;28407;51.830;5.684;2023-01-01T06:18:11;3.22;;;1.38;;
42754;SDS011;28407;51.830;5.684;2023-01-01T06:20:11;3.90;;;1.30;;
42754;SDS011;28407;51.830;5.684;2023-01-01T06:22:12;3.15;;;1.33;;
42754;SDS011;28407;51.830;5.684;2023-01-01T06:24:13;2.53;;;1.35;;
42754;SDS011;28407;51.830;5.684;2023-01-01T06:26:14;3.40;;;1.40;;
42754;SDS011;28407;51.830;5.684;2023-01-01T06:28:17;3.25;;;1.67;;
42754;SDS011;28407;51.830;5.684;2023-01-01T06:30:18;2.85;;;1.52;;
42754;SDS011;28407;51.830;5.684;2023-01-01T06:32:18;1.73;;;1.30;;
42754;SDS011;28407;51.830;5.684;2023-01-01T06:34:19;3.67;;;1.30;;
42754;SDS011;28407;51.830;5.684;2023-01-01T06:36:21;3.20;;;1.30;;
42754;SDS011;28407;51.830;5.684;2023-01-01T06:38:23;1.48;;;1.20;;
42754;SDS011;28407;51.830;5.684;2023-01-01T06:40:23;2.20;;;1.58;;
42754;SDS011;28407;51.830;5.684;2023-01-01T06:42:24;1.33;;;1.20;;
42754;SDS011;28407;51.830;5.684;2023-01-01T06:44:25;1.35;;;1.25;;
42754;SDS011;28407;51.830;5.684;2023-01-01T06:46:32;1.73;;;1.27;;
42754;SDS011;28407;51.830;5.684;2023-01-01T06:48:35;1.88;;;1.10;;
42754;SDS011;28407;51.830;5.684;2023-01-01T06:50:35;2.08;;;1.13;;
42754;SDS011;28407;51.830;5.684;2023-01-01T06:52:36;2.92;;;1.20;;
42754;SDS011;28407;51.830;5.684;2023-01-01T06:54:37;1.42;;;1.10;;
42754;SDS011;28407;51.830;5.684;2023-01-01T06:56:37;1.20;;;1.10;;
42754;SDS011;28407;51.830;5.684;2023-01-01T06:58:38;1.73;;;1.25;;
42754;SDS011;28407;51.830;5.684;2023-01-01T07:00:39;1.30;;;1.20;;
42754;SDS011;28407;51.830;5.684;2023-01-01T07:02:40;1.63;;;1.13;;
42754;SDS011;28407;51.830;5.684;2023-01-01T07:04:41;1.90;;;1.15;;
42754;SDS011;28407;51.830;5.684;2023-01-01T07:06:41;1.88;;;1.10;;
42754;SDS011;28407;51.830;5.684;2023-01-01T07:08:42;1.20;;;1.10;;
42754;SDS011;28407;51.830;5.684;2023-01-01T07:10:43;3.63;;;1.10;;
42754;SDS011;28407;51.830;5.684;2023-01-01T07:12:43;3.13;;;1.13;;
42754;SDS011;28407;51.830;5.684;2023-01-01T07:14:44;1.92;;;1.48;;
42754;SDS011;28407;51.830;5.684;2023-01-01T07:16:44;1.10;;;0.98;;
42754;SDS011;28407;51.830;5.684;2023-01-01T07:18:45;2.15;;;1.10;;
42754;SDS011;28407;51.830;5.684;2023-01-01T07:21:03;2.85;;;1.10;;
42754;SDS011;28407;51.830;5.684;2023-01-01T07:23:05;1.48;;;1.30;;
42754;SDS011;28407;51.830;5.684;2023-01-01T07:25:06;2.38;;;1.20;;
42754;SDS011;28407;51.830;5.684;2023-01-01T07:27:09;1.75;;;1.65;;
42754;SDS011;28407;51.830;5.684;2023-01-01T07:29:10;1.48;;;1.10;;
42754;SDS011;28407;51.830;5.684;2023-01-01T07:31:11;2.15;;;1.27;;
42754;SDS011;28407;51.830;5.684;2023-01-01T07:33:13;2.45;;;1.20;;
42754;SDS011;28407;51.830;5.684;2023-01-01T07:35:15;2.30;;;1.27;;
42754;SDS011;28407;51.830;5.684;2023-01-01T07:37:16;1.40;;;1.30;;
42754;SDS011;28407;51.830;5.684;2023-01-01T07:39:17;1.33;;;1.10;;
42754;SDS011;28407;51.830;5.684;2023-01-01T07:41:17;2.42;;;1.30;;
42754;SDS011;28407;51.830;5.684;2023-01-01T07:43:18;1.60;;;1.10;;
42754;SDS011;28407;51.830;5.684;2023-01-01T07:45:19;2.78;;;1.20;;
42754;SDS011;28407;51.830;5.684;2023-01-01T07:47:20;1.52;;;1.23;;
42754;SDS011;28407;51.830;5.684;2023-01-01T07:49:23;1.77;;;1.13;;
42754;SDS011;28407;51.830;5.684;2023-01-01T07:51:24;2.42;;;1.20;;
42754;SDS011;28407;51.830;5.684;2023-01-01T07:53:25;3.58;;;1.63;;
42754;SDS011;28407;51.830;5.684;2023-01-01T07:55:25;3.28;;;1.42;;
42754;SDS011;28407;51.830;5.684;2023-01-01T07:57:26;3.17;;;1.40;;
42754;SDS011;28407;51.830;5.684;2023-01-01T07:59:27;3.85;;;1.77;;
42754;SDS011;28407;51.830;5.684;2023-01-01T08:01:27;1.30;;;1.20;;
42754;SDS011;28407;51.830;5.684;2023-01-01T08:03:28;1.83;;;1.27;;
42754;SDS011;28407;51.830;5.684;2023-01-01T08:05:28;1.83;;;1.10;;
42754;SDS011;28407;51.830;5.684;2023-01-01T08:07:29;1.33;;;1.20;;
42754;SDS011;28407;51.830;5.684;2023-01-01T08:09:30;2.45;;;1.98;;
42754;SDS011;28407;51.830;5.684;2023-01-01T08:11:30;1.88;;;1.40;;
42754;SDS011;28407;51.830;5.684;2023-01-01T08:13:31;3.28;;;1.50;;
42754;SDS011;28407;51.830;5.684;2023-01-01T08:15:32;2.75;;;1.67;;
42754;SDS011;28407;51.830;5.684;2023-01-01T08:17:33;4.85;;;1.88;;
42754;SDS011;28407;51.830;5.684;2023-01-01T08:19:33;2.97;;;2.20;;
42754;SDS011;28407;51.830;5.684;2023-01-01T08:21:34;2.63;;;1.40;;
42754;SDS011;28407;51.830;5.684;2023-01-01T08:23:34;1.40;;;1.30;;
42754;SDS011;28407;51.830;5.684;2023-01-01T08:25:35;2.80;;;1.38;;
42754;SDS011;28407;51.830;5.684;2023-01-01T08:27:36;1.65;;;1.52;;
42754;SDS011;28407;51.830;5.684;2023-01-01T08:29:37;5.70;;;1.60;;
42754;SDS011;28407;51.830;5.684;2023-01-01T08:31:38;2.72;;;1.85;;
42754;SDS011;28407;51.830;5.684;2023-01-01T08:33:38;2.17;;;1.33;;
42754;SDS011;28407;51.830;5.684;2023-01-01T08:35:39;2.65;;;1.50;;
42754;SDS011;28407;51.830;5.684;2023-01-01T08:37:41;2.95;;;1.45;;
42754;SDS011;28407;51.830;5.684;2023-01-01T08:39:42;1.52;;;1.27;;
42754;SDS011;28407;51.830;5.684;2023-01-01T08:41:42;2.10;;;1.30;;
42754;SDS011;28407;51.830;5.684;2023-01-01T08:43:43;1.80;;;1.30;;
42754;SDS011;28407;51.830;5.684;2023-01-01T08:45:44;2.83;;;1.67;;
42754;SDS011;28407;51.830;5.684;2023-01-01T08:47:45;1.73;;;1.50;;
42754;SDS011;28407;51.830;5.684;2023-01-01T08:49:45;3.35;;;1.63;;
42754;SDS011;28407;51.830;5.684;2023-01-01T08:51:46;1.65;;;1.38;;
42754;SDS011;28407;51.830;5.684;2023-01-01T08:53:47;2.83;;;1.55;;
42754;SDS011;28407;51.830;5.684;2023-01-01T08:56:06;2.40;;;1.63;;
42754;SDS011;28407;51.830;5.684;2023-01-01T08:58:08;2.13;;;1.30;;
42754;SDS011;28407;51.830;5.684;2023-01-01T09:00:09;4.00;;;1.55;;
42754;SDS011;28407;51.830;5.684;2023-01-01T09:02:10;3.25;;;1.95;;
42754;SDS011;28407;51.830;5.684;2023-01-01T09:04:11;4.63;;;2.53;;
42754;SDS011;28407;51.830;5.684;2023-01-01T09:06:12;3.42;;;2.15;;
42754;SDS011;28407;51.830;5.684;2023-01-01T09:08:13;4.07;;;2.30;;
42754;SDS011;28407;51.830;5.684;2023-01-01T09:10:14;3.65;;;2.03;;
42754;SDS011;28407;51.830;5.684;2023-01-01T09:12:15;4.28;;;2.50;;
42754;SDS011;28407;51.830;5.684;2023-01-01T09:14:16;4.75;;;2.88;;
42754;SDS011;28407;51.830;5.684;2023-01-01T09:16:17;3.33;;;1.73;;
42754;SDS011;28407;51.830;5.684;2023-01-01T09:18:18;5.03;;;2.40;;
42754;SDS011;28407;51.830;5.684;2023-01-01T09:20:19;3.05;;;1.60;;
42754;SDS011;28407;51.830;5.684;2023-01-01T09:22:19;4.10;;;1.63;;
42754;SDS011;28407;51.830;5.684;2023-01-01T09:24:21;7.45;;;3.13;;
42754;SDS011;28407;51.830;5.684;2023-01-01T09:26:22;6.18;;;1.75;;
42754;SDS011;28407;51.830;5.684;2023-01-01T09:28:23;5.35;;;1.85;;
42754;SDS011;28407;51.830;5.684;2023-01-01T09:30:26;2.97;;;1.60;;
42754;SDS011;28407;51.830;5.684;2023-01-01T09:32:27;1.50;;;1.33;;
42754;SDS011;28407;51.830;5.684;2023-01-01T09:34:28;4.63;;;1.75;;
42754;SDS011;28407;51.830;5.684;2023-01-01T09:36:29;1.55;;;1.20;;
42754;SDS011;28407;51.830;5.684;2023-01-01T09:38:31;2.05;;;1.58;;
42754;SDS011;28407;51.830;5.684;2023-01-01T09:42:42;2.03;;;1.40;;
42754;SDS011;28407;51.830;5.684;2023-01-01T09:47:25;2.05;;;1.65;;
42754;SDS011;28407;51.830;5.684;2023-01-01T09:49:34;3.40;;;2.10;;
42754;SDS011;28407;51.830;5.684;2023-01-01T09:51:41;2.30;;;1.50;;
42754;SDS011;28407;51.830;5.684;2023-01-01T09:54:04;3.85;;;1.58;;
42754;SDS011;28407;51.830;5.684;2023-01-01T09:56:10;2.45;;;1.60;;
42754;SDS011;28407;51.830;5.684;2023-01-01T09:58:27;3.35;;;1.50;;
42754;SDS011;28407;51.830;5.684;2023-01-01T10:00:34;3.00;;;2.20;;
42754;SDS011;28407;51.830;5.684;2023-01-01T10:05:26;3.10;;;1.45;;
42754;SDS011;28407;51.830;5.684;2023-01-01T10:12:07;2.80;;;1.50;;
42754;SDS011;28407;51.830;5.684;2023-01-01T10:14:25;1.70;;;1.52;;
42754;SDS011;28407;51.830;5.684;2023-01-01T10:16:47;5.05;;;1.88;;
42754;SDS011;28407;51.830;5.684;2023-01-01T10:18:53;2.28;;;1.55;;
42754;SDS011;28407;51.830;5.684;2023-01-01T10:21:04;4.45;;;2.25;;
42754;SDS011;28407;51.830;5.684;2023-01-01T10:23:24;3.78;;;1.83;;
42754;SDS011;28407;51.830;5.684;2023-01-01T10:25:28;2.85;;;1.52;;
42754;SDS011;28407;51.830;5.684;2023-01-01T10:29:41;7.82;;;2.17;;
42754;SDS011;28407;51.830;5.684;2023-01-01T10:31:45;2.88;;;1.50;;
42754;SDS011;28407;51.830;5.684;2023-01-01T10:33:46;3.90;;;1.80;;
42754;SDS011;28407;51.830;5.684;2023-01-01T10:35:48;6.30;;;1.90;;
42754;SDS011;28407;51.830;5.684;2023-01-01T10:37:52;5.22;;;2.38;;
42754;SDS011;28407;51.830;5.684;2023-01-01T10:39:53;2.25;;;1.50;;
42754;SDS011;28407;51.830;5.684;2023-01-01T10:41:54;3.22;;;2.22;;
42754;SDS011;28407;51.830;5.684;2023-01-01T10:43:57;3.13;;;1.60;;
42754;SDS011;28407;51.830;5.684;2023-01-01T10:45:57;5.90;;;1.85;;
42754;SDS011;28407;51.830;5.684;2023-01-01T10:48:07;4.03;;;1.60;;
42754;SDS011;28407;51.830;5.684;2023-01-01T10:50:10;4.00;;;1.50;;
42754;SDS011;28407;51.830;5.684;2023-01-01T10:52:12;2.20;;;1.60;;
42754;SDS011;28407;51.830;5.684;2023-01-01T10:56:39;3.67;;;1.75;;
42754;SDS011;28407;51.830;5.684;2023-01-01T11:00:43;3.10;;;2.25;;
42754;SDS011;28407;51.830;5.684;2023-01-01T11:05:20;4.18;;;2.58;;
42754;SDS011;28407;51.830;5.684;2023-01-01T11:07:27;3.28;;;2.10;;
42754;SDS011;28407;51.830;5.684;2023-01-01T11:09:30;2.38;;;1.70;;
42754;SDS011;28407;51.830;5.684;2023-01-01T11:11:32;5.13;;;2.67;;
42754;SDS011;28407;51.830;5.684;2023-01-01T11:13:47;2.20;;;1.65;;
42754;SDS011;28407;51.830;5.684;2023-01-01T11:15:49;3.03;;;1.90;;
42754;SDS011;28407;51.830;5.684;2023-01-01T11:17:50;4.13;;;2.45;;
42754;SDS011;28407;51.830;5.684;2023-01-01T11:19:52;3.38;;;2.00;;
42754;SDS011;28407;51.830;5.684;2023-01-01T11:21:53;4.72;;;2.55;;
42754;SDS011;28407;51.830;5.684;2023-01-01T11:26:19;3.80;;;2.25;;
42754;SDS011;28407;51.830;5.684;2023-01-01T11:28:26;3.08;;;1.95;;
42754;SDS011;28407;51.830;5.684;2023-01-01T11:30:30;4.32;;;1.88;;
42754;SDS011;28407;51.830;5.684;2023-01-01T11:32:32;2.17;;;1.98;;
42754;SDS011;28407;51.830;5.684;2023-01-01T11:34:36;3.20;;;2.05;;
42754;SDS011;28407;51.830;5.684;2023-01-01T11:36:39;3.65;;;2.08;;
42754;SDS011;28407;51.830;5.684;2023-01-01T11:38:40;4.25;;;2.50;;
42754;SDS011;28407;51.830;5.684;2023-01-01T11:40:44;2.85;;;1.85;;
42754;SDS011;28407;51.830;5.684;2023-01-01T11:42:49;2.63;;;1.92;;
42754;SDS011;28407;51.830;5.684;2023-01-01T11:44:56;4.20;;;1.90;;
42754;SDS011;28407;51.830;5.684;2023-01-01T11:47:00;5.07;;;2.20;;
42754;SDS011;28407;51.830;5.684;2023-01-01T11:49:02;5.07;;;3.23;;
42754;SDS011;28407;51.830;5.684;2023-01-01T11:51:06;3.70;;;2.83;;
42754;SDS011;28407;51.830;5.684;2023-01-01T11:57:33;8.55;;;3.63;;
42754;SDS011;28407;51.830;5.684;2023-01-01T11:59:52;4.73;;;2.40;;
42754;SDS011;28407;51.830;5.684;2023-01-01T12:02:00;3.15;;;2.22;;
42754;SDS011;28407;51.830;5.684;2023-01-01T12:04:06;6.25;;;2.65;;
42754;SDS011;28407;51.830;5.684;2023-01-01T12:06:18;4.75;;;2.17;;
42754;SDS011;28407;51.830;5.684;2023-01-01T12:11:18;6.10;;;2.35;;
42754;SDS011;28407;51.830;5.684;2023-01-01T12:13:21;3.63;;;2.38;;
42754;SDS011;28407;51.830;5.684;2023-01-01T12:15:30;5.40;;;3.28;;
42754;SDS011;28407;51.830;5.684;2023-01-01T12:17:41;3.17;;;1.90;;
42754;SDS011;28407;51.830;5.684;2023-01-01T12:22:10;2.90;;;2.20;;
42754;SDS011;28407;51.830;5.684;2023-01-01T12:24:15;4.50;;;2.10;;
42754;SDS011;28407;51.830;5.684;2023-01-01T12:26:26;5.60;;;2.00;;
42754;SDS011;28407;51.830;5.684;2023-01-01T12:33:14;4.90;;;2.30;;
42754;SDS011;28407;51.830;5.684;2023-01-01T12:35:48;2.63;;;2.15;;
42754;SDS011;28407;51.830;5.684;2023-01-01T12:45:03;3.92;;;1.95;;
42754;SDS011;28407;51.830;5.684;2023-01-01T12:47:44;4.63;;;3.15;;
42754;SDS011;28407;51.830;5.684;2023-01-01T12:56:37;3.35;;;2.25;;
42754;SDS011;28407;51.830;5.684;2023-01-01T13:01:29;2.25;;;1.48;;
42754;SDS011;28407;51.830;5.684;2023-01-01T13:03:33;3.60;;;1.52;;
42754;SDS011;28407;51.830;5.684;2023-01-01T13:05:41;6.50;;;2.20;;
42754;SDS011;28407;51.830;5.684;2023-01-01T13:07:45;5.15;;;1.90;;
42754;SDS011;28407;51.830;5.684;2023-01-01T13:09:50;5.85;;;2.83;;
42754;SDS011;28407;51.830;5.684;2023-01-01T13:11:55;3.45;;;1.52;;
42754;SDS011;28407;51.830;5.684;2023-01-01T13:13:59;4.38;;;1.90;;
42754;SDS011;28407;51.830;5.684;2023-01-01T13:15:59;3.97;;;1.92;;
42754;SDS011;28407;51.830;5.684;2023-01-01T13:18:01;4.88;;;1.80;;
42754;SDS011;28407;51.830;5.684;2023-01-01T13:24:27;3.97;;;1.88;;
42754;SDS011;28407;51.830;5.684;2023-01-01T13:28:28;3.45;;;2.05;;
42754;SDS011;28407;51.830;5.684;2023-01-01T13:32:54;3.97;;;2.10;;
42754;SDS011;28407;51.830;5.684;2023-01-01T13:35:14;5.00;;;2.00;;
42754;SDS011;28407;51.830;5.684;2023-01-01T13:37:40;3.42;;;1.60;;
42754;SDS011;28407;51.830;5.684;2023-01-01T13:44:38;3.45;;;1.80;;
42754;SDS011;28407;51.830;5.684;2023-01-01T13:48:51;3.75;;;2.08;;
42754;SDS011;28407;51.830;5.684;2023-01-01T13:55:52;4.55;;;1.60;;
42754;SDS011;28407;51.830;5.684;2023-01-01T13:58:30;2.97;;;1.55;;
42754;SDS011;28407;51.830;5.684;2023-01-01T14:00:59;4.25;;;1.77;;
42754;SDS011;28407;51.830;5.684;2023-01-01T14:03:18;3.83;;;1.60;;
42754;SDS011;28407;51.830;5.684;2023-01-01T14:05:32;3.27;;;2.07;;
42754;SDS011;28407;51.830;5.684;2023-01-01T14:09:45;6.82;;;2.13;;
42754;SDS011;28407;51.830;5.684;2023-01-01T14:11:46;3.20;;;1.77;;
42754;SDS011;28407;51.830;5.684;2023-01-01T14:13:47;3.30;;;1.80;;
42754;SDS011;28407;51.830;5.684;2023-01-01T14:17:53;4.53;;;1.70;;